sensor_id;sensor_type;location;lat;lon;timestamp;P1;durP1;ratioP1;P2;durP2;ratioP2
28343;SDS011;15597;50.914;6.638;2022-12-07T00:00:29;16.38;;;8.98;;
28343;SDS011;15597;50.914;6.638;2022-12-07T00:02:54;19.33;;;9.55;;
28343;SDS011;15597;50.914;6.638;2022-12-07T00:05:19;25.73;;;12.63;;
28343;SDS011;15597;50.914;6.638;2022-12-07T00:07:45;24.17;;;12.05;;
28343;SDS011;15597;50.914;6.638;2022-12-07T00:10:11;21.48;;;11.70;;
28343;SDS011;15597;50.914;6.638;2022-12-07T00:12:36;17.98;;;9.55;;
28343;SDS011;15597;50.914;6.638;2022-12-07T00:15:02;17.42;;;9.40;;
28343;SDS011;15597;50.914;6.638;2022-12-07T00:17:28;18.42;;;8.30;;
28343;SDS011;15597;50.914;6.638;2022-12-07T00:19:54;16.40;;;8.98;;
28343;SDS011;15597;50.914;6.638;2022-12-07T00:22:19;15.40;;;7.32;;
28343;SDS011;15597;50.914;6.638;2022-12-07T00:24:45;22.08;;;10.90;;
28343;SDS011;15597;50.914;6.638;2022-12-07T00:27:10;23.10;;;11.43;;
28343;SDS011;15597;50.914;6.638;2022-12-07T00:29:36;24.95;;;11.57;;
28343;SDS011;15597;50.914;6.638;2022-12-07T00:32:02;18.48;;;9.60;;
28343;SDS011;15597;50.914;6.638;2022-12-07T00:34:28;15.57;;;7.80;;
28343;SDS011;15597;50.914;6.638;2022-12-07T00:36:53;22.63;;;11.43;;
28343;SDS011;15597;50.914;6.638;2022-12-07T00:39:19;23.23;;;11.43;;
28343;SDS011;15597;50.914;6.638;2022-12-07T00:41:44;20.67;;;9.80;;
28343;SDS011;15597;50.914;6.638;2022-12-07T00:44:10;22.50;;;10.77;;
28343;SDS011;15597;50.914;6.638;2022-12-07T00:46:36;18.13;;;9.60;;
28343;SDS011;15597;50.914;6.638;2022-12-07T00:49:02;17.08;;;9.13;;
28343;SDS011;15597;50.914;6.638;2022-12-07T00:51:28;19.55;;;10.93;;
28343;SDS011;15597;50.914;6.638;2022-12-07T00:53:53;17.23;;;8.07;;
28343;SDS011;15597;50.914;6.638;2022-12-07T00:56:23;23.92;;;10.35;;
28343;SDS011;15597;50.914;6.638;2022-12-07T00:58:57;15.13;;;8.07;;
28343;SDS011;15597;50.914;6.638;2022-12-07T01:01:26;17.90;;;8.40;;
28343;SDS011;15597;50.914;6.638;2022-12-07T01:03:53;23.45;;;11.50;;
28343;SDS011;15597;50.914;6.638;2022-12-07T01:06:20;18.83;;;10.32;;
28343;SDS011;15597;50.914;6.638;2022-12-07T01:08:46;18.65;;;9.93;;
28343;SDS011;15597;50.914;6.638;2022-12-07T01:11:13;21.02;;;11.73;;
28343;SDS011;15597;50.914;6.638;2022-12-07T01:13:42;18.48;;;9.90;;
28343;SDS011;15597;50.914;6.638;2022-12-07T01:16:09;17.63;;;8.65;;
28343;SDS011;15597;50.914;6.638;2022-12-07T01:18:36;15.20;;;8.07;;
28343;SDS011;15597;50.914;6.638;2022-12-07T01:21:06;16.30;;;8.30;;
28343;SDS011;15597;50.914;6.638;2022-12-07T01:23:34;22.60;;;11.95;;
28343;SDS011;15597;50.914;6.638;2022-12-07T01:26:01;21.50;;;10.80;;
28343;SDS011;15597;50.914;6.638;2022-12-07T01:28:29;25.95;;;11.85;;
28343;SDS011;15597;50.914;6.638;2022-12-07T01:30:59;22.17;;;12.23;;
28343;SDS011;15597;50.914;6.638;2022-12-07T01:33:30;24.13;;;11.77;;
28343;SDS011;15597;50.914;6.638;2022-12-07T01:38:30;18.88;;;8.48;;
28343;SDS011;15597;50.914;6.638;2022-12-07T01:40:56;23.92;;;10.77;;
28343;SDS011;15597;50.914;6.638;2022-12-07T01:43:23;21.73;;;11.63;;
28343;SDS011;15597;50.914;6.638;2022-12-07T01:45:50;21.63;;;11.45;;
28343;SDS011;15597;50.914;6.638;2022-12-07T01:48:17;17.75;;;7.85;;
28343;SDS011;15597;50.914;6.638;2022-12-07T01:50:47;20.17;;;10.05;;
28343;SDS011;15597;50.914;6.638;2022-12-07T01:53:15;17.30;;;9.73;;
28343;SDS011;15597;50.914;6.638;2022-12-07T01:55:44;28.77;;;13.98;;
28343;SDS011;15597;50.914;6.638;2022-12-07T01:58:12;19.40;;;10.00;;
28343;SDS011;15597;50.914;6.638;2022-12-07T02:00:39;17.38;;;9.93;;
28343;SDS011;15597;50.914;6.638;2022-12-07T02:03:07;22.50;;;11.55;;
28343;SDS011;15597;50.914;6.638;2022-12-07T02:05:34;23.33;;;12.38;;
28343;SDS011;15597;50.914;6.638;2022-12-07T02:08:03;20.13;;;11.18;;
28343;SDS011;15597;50.914;6.638;2022-12-07T02:10:30;23.45;;;12.13;;
28343;SDS011;15597;50.914;6.638;2022-12-07T02:16:27;21.63;;;11.82;;
28343;SDS011;15597;50.914;6.638;2022-12-07T02:18:30;15.25;;;8.43;;
28343;SDS011;15597;50.914;6.638;2022-12-07T02:23:38;22.00;;;11.23;;
28343;SDS011;15597;50.914;6.638;2022-12-07T02:31:39;16.80;;;9.48;;
28343;SDS011;15597;50.914;6.638;2022-12-07T02:34:32;18.63;;;8.73;;
28343;SDS011;15597;50.914;6.638;2022-12-07T02:37:09;15.57;;;9.02;;
28343;SDS011;15597;50.914;6.638;2022-12-07T02:39:44;20.63;;;10.40;;
28343;SDS011;15597;50.914;6.638;2022-12-07T02:42:17;21.70;;;11.55;;
28343;SDS011;15597;50.914;6.638;2022-12-07T02:44:48;16.95;;;8.85;;
28343;SDS011;15597;50.914;6.638;2022-12-07T02:47:16;25.63;;;12.27;;
28343;SDS011;15597;50.914;6.638;2022-12-07T02:49:45;17.83;;;10.05;;
28343;SDS011;15597;50.914;6.638;2022-12-07T02:52:11;19.20;;;9.10;;
28343;SDS011;15597;50.914;6.638;2022-12-07T02:54:37;26.50;;;12.40;;
28343;SDS011;15597;50.914;6.638;2022-12-07T03:00:03;23.50;;;12.27;;
28343;SDS011;15597;50.914;6.638;2022-12-07T03:05:15;18.17;;;9.38;;
28343;SDS011;15597;50.914;6.638;2022-12-07T03:13:16;19.48;;;10.43;;
28343;SDS011;15597;50.914;6.638;2022-12-07T03:18:28;16.63;;;9.48;;
28343;SDS011;15597;50.914;6.638;2022-12-07T03:20:58;17.30;;;9.55;;
28343;SDS011;15597;50.914;6.638;2022-12-07T03:23:27;22.75;;;10.80;;
28343;SDS011;15597;50.914;6.638;2022-12-07T03:25:58;14.98;;;8.77;;
28343;SDS011;15597;50.914;6.638;2022-12-07T03:28:26;16.33;;;8.05;;
28343;SDS011;15597;50.914;6.638;2022-12-07T03:31:03;19.65;;;10.73;;
28343;SDS011;15597;50.914;6.638;2022-12-07T03:33:40;21.83;;;11.25;;
28343;SDS011;15597;50.914;6.638;2022-12-07T03:39:21;19.05;;;9.82;;
28343;SDS011;15597;50.914;6.638;2022-12-07T03:41:43;19.75;;;8.90;;
28343;SDS011;15597;50.914;6.638;2022-12-07T03:44:10;23.08;;;10.82;;
28343;SDS011;15597;50.914;6.638;2022-12-07T03:47:10;14.77;;;8.40;;
28343;SDS011;15597;50.914;6.638;2022-12-07T03:49:41;17.98;;;9.93;;
28343;SDS011;15597;50.914;6.638;2022-12-07T03:54:47;17.20;;;8.57;;
28343;SDS011;15597;50.914;6.638;2022-12-07T03:57:21;15.90;;;8.10;;
28343;SDS011;15597;50.914;6.638;2022-12-07T03:59:49;14.85;;;8.40;;
28343;SDS011;15597;50.914;6.638;2022-12-07T04:02:16;17.60;;;8.27;;
28343;SDS011;15597;50.914;6.638;2022-12-07T04:04:42;19.80;;;9.93;;
28343;SDS011;15597;50.914;6.638;2022-12-07T04:07:08;15.05;;;8.10;;
28343;SDS011;15597;50.914;6.638;2022-12-07T04:09:34;21.50;;;11.38;;
28343;SDS011;15597;50.914;6.638;2022-12-07T04:12:00;17.00;;;8.23;;
28343;SDS011;15597;50.914;6.638;2022-12-07T04:14:25;16.75;;;9.18;;
28343;SDS011;15597;50.914;6.638;2022-12-07T04:16:52;18.77;;;10.18;;
28343;SDS011;15597;50.914;6.638;2022-12-07T04:19:23;16.40;;;7.95;;
28343;SDS011;15597;50.914;6.638;2022-12-07T04:21:54;22.05;;;11.48;;
28343;SDS011;15597;50.914;6.638;2022-12-07T04:24:21;16.25;;;8.57;;
28343;SDS011;15597;50.914;6.638;2022-12-07T04:26:47;21.67;;;10.65;;
28343;SDS011;15597;50.914;6.638;2022-12-07T04:29:13;16.40;;;8.50;;
28343;SDS011;15597;50.914;6.638;2022-12-07T04:31:40;22.60;;;9.80;;
28343;SDS011;15597;50.914;6.638;2022-12-07T04:34:06;13.80;;;7.82;;
28343;SDS011;15597;50.914;6.638;2022-12-07T04:36:33;14.90;;;8.02;;
28343;SDS011;15597;50.914;6.638;2022-12-07T04:38:59;14.35;;;7.82;;
28343;SDS011;15597;50.914;6.638;2022-12-07T04:41:25;19.15;;;10.38;;
28343;SDS011;15597;50.914;6.638;2022-12-07T04:43:58;16.35;;;8.57;;
28343;SDS011;15597;50.914;6.638;2022-12-07T04:46:44;20.02;;;9.73;;
28343;SDS011;15597;50.914;6.638;2022-12-07T04:49:29;17.88;;;8.98;;
28343;SDS011;15597;50.914;6.638;2022-12-07T04:51:54;21.02;;;9.73;;
28343;SDS011;15597;50.914;6.638;2022-12-07T04:54:20;17.42;;;8.48;;
28343;SDS011;15597;50.914;6.638;2022-12-07T04:56:46;15.15;;;8.15;;
28343;SDS011;15597;50.914;6.638;2022-12-07T04:59:12;20.00;;;9.38;;
28343;SDS011;15597;50.914;6.638;2022-12-07T05:01:39;17.85;;;9.18;;
28343;SDS011;15597;50.914;6.638;2022-12-07T05:04:05;21.17;;;10.05;;
28343;SDS011;15597;50.914;6.638;2022-12-07T05:06:31;20.98;;;10.48;;
28343;SDS011;15597;50.914;6.638;2022-12-07T05:08:56;17.75;;;7.32;;
28343;SDS011;15597;50.914;6.638;2022-12-07T05:11:22;20.35;;;10.25;;
28343;SDS011;15597;50.914;6.638;2022-12-07T05:14:04;20.95;;;9.98;;
28343;SDS011;15597;50.914;6.638;2022-12-07T05:16:35;16.45;;;8.48;;
28343;SDS011;15597;50.914;6.638;2022-12-07T05:19:00;14.95;;;8.27;;
28343;SDS011;15597;50.914;6.638;2022-12-07T05:21:26;23.58;;;11.45;;
28343;SDS011;15597;50.914;6.638;2022-12-07T05:23:51;24.95;;;12.30;;
28343;SDS011;15597;50.914;6.638;2022-12-07T05:26:17;17.77;;;9.32;;
28343;SDS011;15597;50.914;6.638;2022-12-07T05:28:43;22.83;;;11.52;;
28343;SDS011;15597;50.914;6.638;2022-12-07T05:31:08;15.70;;;8.85;;
28343;SDS011;15597;50.914;6.638;2022-12-07T05:33:34;17.65;;;9.18;;
28343;SDS011;15597;50.914;6.638;2022-12-07T05:35:59;15.73;;;7.93;;
28343;SDS011;15597;50.914;6.638;2022-12-07T05:38:31;15.30;;;7.45;;
28343;SDS011;15597;50.914;6.638;2022-12-07T05:41:04;17.08;;;8.48;;
28343;SDS011;15597;50.914;6.638;2022-12-07T05:43:31;15.57;;;8.40;;
28343;SDS011;15597;50.914;6.638;2022-12-07T05:45:57;15.68;;;8.45;;
28343;SDS011;15597;50.914;6.638;2022-12-07T05:48:23;16.08;;;8.30;;
28343;SDS011;15597;50.914;6.638;2022-12-07T05:50:50;14.90;;;8.05;;
28343;SDS011;15597;50.914;6.638;2022-12-07T05:53:16;17.20;;;9.20;;
28343;SDS011;15597;50.914;6.638;2022-12-07T05:55:42;17.48;;;8.55;;
28343;SDS011;15597;50.914;6.638;2022-12-07T05:58:09;16.40;;;8.30;;
28343;SDS011;15597;50.914;6.638;2022-12-07T06:00:54;16.45;;;7.68;;
28343;SDS011;15597;50.914;6.638;2022-12-07T06:03:20;15.80;;;7.72;;
28343;SDS011;15597;50.914;6.638;2022-12-07T06:05:46;17.45;;;8.77;;
28343;SDS011;15597;50.914;6.638;2022-12-07T06:08:12;14.98;;;8.50;;
28343;SDS011;15597;50.914;6.638;2022-12-07T06:10:40;15.25;;;8.52;;
28343;SDS011;15597;50.914;6.638;2022-12-07T06:13:07;16.15;;;7.65;;
28343;SDS011;15597;50.914;6.638;2022-12-07T06:15:36;15.73;;;8.00;;
28343;SDS011;15597;50.914;6.638;2022-12-07T06:18:02;17.95;;;9.07;;
28343;SDS011;15597;50.914;6.638;2022-12-07T06:20:27;13.73;;;7.63;;
28343;SDS011;15597;50.914;6.638;2022-12-07T06:22:53;21.73;;;11.02;;
28343;SDS011;15597;50.914;6.638;2022-12-07T06:25:19;16.52;;;8.25;;
28343;SDS011;15597;50.914;6.638;2022-12-07T06:27:44;16.88;;;9.00;;
28343;SDS011;15597;50.914;6.638;2022-12-07T06:30:10;15.18;;;7.63;;
28343;SDS011;15597;50.914;6.638;2022-12-07T06:32:36;23.65;;;9.38;;
28343;SDS011;15597;50.914;6.638;2022-12-07T06:35:02;20.35;;;10.60;;
28343;SDS011;15597;50.914;6.638;2022-12-07T06:37:28;19.02;;;8.52;;
28343;SDS011;15597;50.914;6.638;2022-12-07T06:39:54;21.20;;;11.65;;
28343;SDS011;15597;50.914;6.638;2022-12-07T06:42:20;21.15;;;11.85;;
28343;SDS011;15597;50.914;6.638;2022-12-07T06:44:45;18.95;;;9.52;;
28343;SDS011;15597;50.914;6.638;2022-12-07T06:47:10;16.38;;;8.90;;
28343;SDS011;15597;50.914;6.638;2022-12-07T06:49:36;17.00;;;8.68;;
28343;SDS011;15597;50.914;6.638;2022-12-07T06:52:02;20.15;;;10.52;;
28343;SDS011;15597;50.914;6.638;2022-12-07T06:54:29;20.88;;;11.00;;
28343;SDS011;15597;50.914;6.638;2022-12-07T06:56:55;25.15;;;11.90;;
28343;SDS011;15597;50.914;6.638;2022-12-07T06:59:21;25.05;;;11.07;;
28343;SDS011;15597;50.914;6.638;2022-12-07T07:01:47;19.00;;;10.23;;
28343;SDS011;15597;50.914;6.638;2022-12-07T07:04:14;17.10;;;8.80;;
28343;SDS011;15597;50.914;6.638;2022-12-07T07:06:39;20.35;;;10.23;;
28343;SDS011;15597;50.914;6.638;2022-12-07T07:09:05;21.23;;;10.73;;
28343;SDS011;15597;50.914;6.638;2022-12-07T07:11:30;18.40;;;9.38;;
28343;SDS011;15597;50.914;6.638;2022-12-07T07:13:56;17.17;;;8.73;;
28343;SDS011;15597;50.914;6.638;2022-12-07T07:16:24;16.00;;;8.13;;
28343;SDS011;15597;50.914;6.638;2022-12-07T07:18:49;16.73;;;8.52;;
28343;SDS011;15597;50.914;6.638;2022-12-07T07:21:15;24.27;;;10.25;;
28343;SDS011;15597;50.914;6.638;2022-12-07T07:23:40;19.45;;;9.60;;
28343;SDS011;15597;50.914;6.638;2022-12-07T07:26:06;18.42;;;8.70;;
28343;SDS011;15597;50.914;6.638;2022-12-07T07:28:31;16.30;;;8.07;;
28343;SDS011;15597;50.914;6.638;2022-12-07T07:30:57;15.52;;;8.23;;
28343;SDS011;15597;50.914;6.638;2022-12-07T07:33:22;20.05;;;9.85;;
28343;SDS011;15597;50.914;6.638;2022-12-07T07:35:48;19.17;;;10.32;;
28343;SDS011;15597;50.914;6.638;2022-12-07T07:38:13;22.77;;;10.68;;
28343;SDS011;15597;50.914;6.638;2022-12-07T07:40:39;17.63;;;8.40;;
28343;SDS011;15597;50.914;6.638;2022-12-07T07:43:04;15.77;;;7.72;;
28343;SDS011;15597;50.914;6.638;2022-12-07T07:45:30;19.05;;;8.70;;
28343;SDS011;15597;50.914;6.638;2022-12-07T07:47:56;16.95;;;8.43;;
28343;SDS011;15597;50.914;6.638;2022-12-07T07:50:21;21.13;;;9.57;;
28343;SDS011;15597;50.914;6.638;2022-12-07T07:52:47;18.25;;;9.32;;
28343;SDS011;15597;50.914;6.638;2022-12-07T07:55:12;18.73;;;8.70;;
28343;SDS011;15597;50.914;6.638;2022-12-07T07:57:38;20.55;;;10.00;;
28343;SDS011;15597;50.914;6.638;2022-12-07T08:00:07;15.90;;;8.13;;
28343;SDS011;15597;50.914;6.638;2022-12-07T08:02:38;14.23;;;7.57;;
28343;SDS011;15597;50.914;6.638;2022-12-07T08:05:04;15.70;;;8.57;;
28343;SDS011;15597;50.914;6.638;2022-12-07T08:07:30;14.75;;;7.97;;
28343;SDS011;15597;50.914;6.638;2022-12-07T08:09:56;14.50;;;7.78;;
28343;SDS011;15597;50.914;6.638;2022-12-07T08:12:21;15.63;;;8.90;;
28343;SDS011;15597;50.914;6.638;2022-12-07T08:14:47;16.35;;;7.57;;
28343;SDS011;15597;50.914;6.638;2022-12-07T08:17:12;18.45;;;9.75;;
28343;SDS011;15597;50.914;6.638;2022-12-07T08:19:38;16.55;;;8.88;;
28343;SDS011;15597;50.914;6.638;2022-12-07T08:22:03;18.30;;;9.02;;
28343;SDS011;15597;50.914;6.638;2022-12-07T08:24:29;14.75;;;7.93;;
28343;SDS011;15597;50.914;6.638;2022-12-07T08:26:55;17.35;;;9.10;;
28343;SDS011;15597;50.914;6.638;2022-12-07T08:29:20;13.90;;;6.97;;
28343;SDS011;15597;50.914;6.638;2022-12-07T08:31:46;15.60;;;7.93;;
28343;SDS011;15597;50.914;6.638;2022-12-07T08:34:12;18.05;;;9.38;;
28343;SDS011;15597;50.914;6.638;2022-12-07T08:36:38;18.77;;;8.75;;
28343;SDS011;15597;50.914;6.638;2022-12-07T08:39:03;18.98;;;9.68;;
28343;SDS011;15597;50.914;6.638;2022-12-07T08:41:29;18.17;;;8.52;;
28343;SDS011;15597;50.914;6.638;2022-12-07T08:43:54;19.55;;;9.45;;
28343;SDS011;15597;50.914;6.638;2022-12-07T08:49:08;21.13;;;10.40;;
28343;SDS011;15597;50.914;6.638;2022-12-07T08:51:38;20.63;;;9.57;;
28343;SDS011;15597;50.914;6.638;2022-12-07T08:54:06;15.52;;;7.78;;
28343;SDS011;15597;50.914;6.638;2022-12-07T08:56:34;18.80;;;10.00;;
28343;SDS011;15597;50.914;6.638;2022-12-07T08:59:00;20.10;;;9.27;;
28343;SDS011;15597;50.914;6.638;2022-12-07T09:01:26;17.63;;;8.50;;
28343;SDS011;15597;50.914;6.638;2022-12-07T09:03:52;16.60;;;7.68;;
28343;SDS011;15597;50.914;6.638;2022-12-07T09:06:17;18.35;;;9.00;;
28343;SDS011;15597;50.914;6.638;2022-12-07T09:08:44;21.92;;;9.75;;
28343;SDS011;15597;50.914;6.638;2022-12-07T09:11:12;16.02;;;7.72;;
28343;SDS011;15597;50.914;6.638;2022-12-07T09:13:38;16.35;;;7.80;;
28343;SDS011;15597;50.914;6.638;2022-12-07T09:16:03;15.52;;;8.65;;
28343;SDS011;15597;50.914;6.638;2022-12-07T09:18:29;21.63;;;10.25;;
28343;SDS011;15597;50.914;6.638;2022-12-07T09:20:55;16.77;;;8.10;;
28343;SDS011;15597;50.914;6.638;2022-12-07T09:23:21;19.63;;;8.93;;
28343;SDS011;15597;50.914;6.638;2022-12-07T09:25:47;15.90;;;7.65;;
28343;SDS011;15597;50.914;6.638;2022-12-07T09:28:13;18.55;;;8.07;;
28343;SDS011;15597;50.914;6.638;2022-12-07T09:30:38;17.10;;;8.55;;
28343;SDS011;15597;50.914;6.638;2022-12-07T09:33:04;15.35;;;7.28;;
28343;SDS011;15597;50.914;6.638;2022-12-07T09:35:29;24.75;;;11.20;;
28343;SDS011;15597;50.914;6.638;2022-12-07T09:37:55;18.83;;;8.98;;
28343;SDS011;15597;50.914;6.638;2022-12-07T09:40:21;17.58;;;8.57;;
28343;SDS011;15597;50.914;6.638;2022-12-07T09:42:49;17.85;;;9.30;;
28343;SDS011;15597;50.914;6.638;2022-12-07T09:45:24;19.50;;;9.40;;
28343;SDS011;15597;50.914;6.638;2022-12-07T09:47:54;21.10;;;10.18;;
28343;SDS011;15597;50.914;6.638;2022-12-07T09:50:24;24.60;;;11.23;;
28343;SDS011;15597;50.914;6.638;2022-12-07T09:52:52;19.23;;;9.02;;
28343;SDS011;15597;50.914;6.638;2022-12-07T09:55:23;17.20;;;9.40;;
28343;SDS011;15597;50.914;6.638;2022-12-07T09:57:52;16.10;;;7.75;;
28343;SDS011;15597;50.914;6.638;2022-12-07T10:00:18;15.90;;;8.05;;
28343;SDS011;15597;50.914;6.638;2022-12-07T10:05:28;17.27;;;8.15;;
28343;SDS011;15597;50.914;6.638;2022-12-07T10:07:57;22.08;;;9.80;;
28343;SDS011;15597;50.914;6.638;2022-12-07T10:10:28;14.98;;;7.43;;
28343;SDS011;15597;50.914;6.638;2022-12-07T10:13:00;14.25;;;6.90;;
28343;SDS011;15597;50.914;6.638;2022-12-07T10:15:41;13.52;;;7.07;;
28343;SDS011;15597;50.914;6.638;2022-12-07T10:18:21;20.85;;;10.45;;
28343;SDS011;15597;50.914;6.638;2022-12-07T10:21:05;14.70;;;6.78;;
28343;SDS011;15597;50.914;6.638;2022-12-07T10:23:37;16.13;;;7.03;;
28343;SDS011;15597;50.914;6.638;2022-12-07T10:26:21;14.63;;;7.07;;
28343;SDS011;15597;50.914;6.638;2022-12-07T10:28:54;15.02;;;7.90;;
28343;SDS011;15597;50.914;6.638;2022-12-07T10:31:21;19.90;;;8.57;;
28343;SDS011;15597;50.914;6.638;2022-12-07T10:36:23;16.15;;;7.05;;
28343;SDS011;15597;50.914;6.638;2022-12-07T10:38:59;18.55;;;8.20;;
28343;SDS011;15597;50.914;6.638;2022-12-07T10:41:28;13.18;;;7.03;;
28343;SDS011;15597;50.914;6.638;2022-12-07T10:43:54;15.52;;;7.50;;
28343;SDS011;15597;50.914;6.638;2022-12-07T10:46:28;15.27;;;7.32;;
28343;SDS011;15597;50.914;6.638;2022-12-07T10:49:16;14.98;;;7.35;;
28343;SDS011;15597;50.914;6.638;2022-12-07T10:54:41;17.00;;;8.13;;
28343;SDS011;15597;50.914;6.638;2022-12-07T10:57:14;16.50;;;7.70;;
28343;SDS011;15597;50.914;6.638;2022-12-07T10:59:56;17.23;;;7.65;;
28343;SDS011;15597;50.914;6.638;2022-12-07T11:10:14;17.52;;;7.93;;
28343;SDS011;15597;50.914;6.638;2022-12-07T11:37:32;23.48;;;9.35;;
28343;SDS011;15597;50.914;6.638;2022-12-07T11:40:02;18.30;;;8.23;;
28343;SDS011;15597;50.914;6.638;2022-12-07T11:42:33;16.10;;;7.40;;
28343;SDS011;15597;50.914;6.638;2022-12-07T11:45:16;18.40;;;8.07;;
28343;SDS011;15597;50.914;6.638;2022-12-07T11:47:51;16.45;;;7.55;;
28343;SDS011;15597;50.914;6.638;2022-12-07T11:53:01;16.48;;;7.30;;
28343;SDS011;15597;50.914;6.638;2022-12-07T11:55:51;12.60;;;6.20;;
28343;SDS011;15597;50.914;6.638;2022-12-07T12:01:06;12.10;;;6.28;;
28343;SDS011;15597;50.914;6.638;2022-12-07T12:03:45;11.05;;;5.38;;
28343;SDS011;15597;50.914;6.638;2022-12-07T12:06:12;12.07;;;6.00;;
28343;SDS011;15597;50.914;6.638;2022-12-07T12:08:40;15.40;;;6.47;;
28343;SDS011;15597;50.914;6.638;2022-12-07T12:14:03;15.30;;;6.47;;
28343;SDS011;15597;50.914;6.638;2022-12-07T12:16:49;15.00;;;6.72;;
28343;SDS011;15597;50.914;6.638;2022-12-07T12:19:23;16.92;;;6.93;;
28343;SDS011;15597;50.914;6.638;2022-12-07T12:22:10;15.82;;;6.70;;
28343;SDS011;15597;50.914;6.638;2022-12-07T12:24:42;13.88;;;6.32;;
28343;SDS011;15597;50.914;6.638;2022-12-07T12:27:15;11.32;;;5.90;;
28343;SDS011;15597;50.914;6.638;2022-12-07T12:29:52;14.73;;;6.75;;
28343;SDS011;15597;50.914;6.638;2022-12-07T12:32:21;17.73;;;7.13;;
28343;SDS011;15597;50.914;6.638;2022-12-07T12:37:52;14.30;;;6.72;;
28343;SDS011;15597;50.914;6.638;2022-12-07T12:42:50;15.05;;;6.30;;
28343;SDS011;15597;50.914;6.638;2022-12-07T12:45:27;12.80;;;6.20;;
28343;SDS011;15597;50.914;6.638;2022-12-07T12:48:02;16.02;;;7.20;;
28343;SDS011;15597;50.914;6.638;2022-12-07T12:50:33;16.65;;;7.32;;
28343;SDS011;15597;50.914;6.638;2022-12-07T12:53:43;17.35;;;7.40;;
28343;SDS011;15597;50.914;6.638;2022-12-07T12:58:28;14.82;;;6.53;;
28343;SDS011;15597;50.914;6.638;2022-12-07T13:03:58;10.95;;;6.00;;
28343;SDS011;15597;50.914;6.638;2022-12-07T13:08:49;13.20;;;5.65;;
28343;SDS011;15597;50.914;6.638;2022-12-07T13:11:32;14.30;;;6.78;;
28343;SDS011;15597;50.914;6.638;2022-12-07T13:17:04;14.98;;;6.88;;
28343;SDS011;15597;50.914;6.638;2022-12-07T13:22:52;13.85;;;7.13;;
28343;SDS011;15597;50.914;6.638;2022-12-07T13:25:01;12.63;;;6.63;;
28343;SDS011;15597;50.914;6.638;2022-12-07T13:27:32;13.48;;;6.50;;
28343;SDS011;15597;50.914;6.638;2022-12-07T13:30:00;13.48;;;7.38;;
28343;SDS011;15597;50.914;6.638;2022-12-07T13:32:27;16.73;;;7.80;;
28343;SDS011;15597;50.914;6.638;2022-12-07T13:34:54;13.13;;;6.53;;
28343;SDS011;15597;50.914;6.638;2022-12-07T13:37:24;13.60;;;6.55;;
28343;SDS011;15597;50.914;6.638;2022-12-07T13:39:53;15.65;;;6.30;;
28343;SDS011;15597;50.914;6.638;2022-12-07T13:42:28;12.77;;;6.50;;
28343;SDS011;15597;50.914;6.638;2022-12-07T13:44:54;12.63;;;6.28;;
28343;SDS011;15597;50.914;6.638;2022-12-07T13:47:39;9.75;;;5.07;;
28343;SDS011;15597;50.914;6.638;2022-12-07T13:50:30;13.48;;;6.30;;
28343;SDS011;15597;50.914;6.638;2022-12-07T13:52:57;12.10;;;5.47;;
28343;SDS011;15597;50.914;6.638;2022-12-07T13:55:24;15.50;;;7.72;;
28343;SDS011;15597;50.914;6.638;2022-12-07T13:57:51;15.00;;;5.70;;
28343;SDS011;15597;50.914;6.638;2022-12-07T14:00:23;11.85;;;5.78;;
28343;SDS011;15597;50.914;6.638;2022-12-07T14:03:33;11.50;;;5.75;;
28343;SDS011;15597;50.914;6.638;2022-12-07T14:05:40;15.10;;;6.03;;
28343;SDS011;15597;50.914;6.638;2022-12-07T14:10:36;12.70;;;5.97;;
28343;SDS011;15597;50.914;6.638;2022-12-07T14:13:03;12.77;;;5.75;;
28343;SDS011;15597;50.914;6.638;2022-12-07T14:15:50;19.67;;;7.22;;
28343;SDS011;15597;50.914;6.638;2022-12-07T14:18:30;16.50;;;6.95;;
28343;SDS011;15597;50.914;6.638;2022-12-07T14:23:36;16.40;;;7.78;;
28343;SDS011;15597;50.914;6.638;2022-12-07T14:28:44;12.20;;;5.90;;
28343;SDS011;15597;50.914;6.638;2022-12-07T14:31:14;12.70;;;5.53;;
28343;SDS011;15597;50.914;6.638;2022-12-07T14:33:42;11.65;;;5.60;;
28343;SDS011;15597;50.914;6.638;2022-12-07T14:36:08;14.95;;;6.35;;
28343;SDS011;15597;50.914;6.638;2022-12-07T14:38:34;10.82;;;5.68;;
28343;SDS011;15597;50.914;6.638;2022-12-07T14:41:00;10.32;;;4.93;;
28343;SDS011;15597;50.914;6.638;2022-12-07T14:43:44;10.95;;;5.85;;
28343;SDS011;15597;50.914;6.638;2022-12-07T14:46:10;13.95;;;6.00;;
28343;SDS011;15597;50.914;6.638;2022-12-07T14:48:35;11.07;;;5.63;;
28343;SDS011;15597;50.914;6.638;2022-12-07T14:51:01;12.23;;;6.68;;
28343;SDS011;15597;50.914;6.638;2022-12-07T14:53:29;11.73;;;6.32;;
28343;SDS011;15597;50.914;6.638;2022-12-07T14:56:00;12.55;;;5.45;;
28343;SDS011;15597;50.914;6.638;2022-12-07T14:58:26;11.80;;;6.57;;
28343;SDS011;15597;50.914;6.638;2022-12-07T15:00:52;12.27;;;5.82;;
28343;SDS011;15597;50.914;6.638;2022-12-07T15:03:17;15.65;;;7.57;;
28343;SDS011;15597;50.914;6.638;2022-12-07T15:05:43;17.67;;;7.30;;
28343;SDS011;15597;50.914;6.638;2022-12-07T15:08:12;13.25;;;6.35;;
28343;SDS011;15597;50.914;6.638;2022-12-07T15:10:38;10.90;;;5.32;;
28343;SDS011;15597;50.914;6.638;2022-12-07T15:13:05;13.68;;;5.97;;
28343;SDS011;15597;50.914;6.638;2022-12-07T15:15:50;16.75;;;5.82;;
28343;SDS011;15597;50.914;6.638;2022-12-07T15:18:17;12.63;;;5.90;;
28343;SDS011;15597;50.914;6.638;2022-12-07T15:20:44;16.88;;;6.53;;
28343;SDS011;15597;50.914;6.638;2022-12-07T15:23:10;12.57;;;5.70;;
28343;SDS011;15597;50.914;6.638;2022-12-07T15:25:36;13.23;;;5.63;;
28343;SDS011;15597;50.914;6.638;2022-12-07T15:28:05;17.85;;;6.82;;
28343;SDS011;15597;50.914;6.638;2022-12-07T15:30:30;12.68;;;5.63;;
28343;SDS011;15597;50.914;6.638;2022-12-07T15:32:55;7.82;;;4.05;;
28343;SDS011;15597;50.914;6.638;2022-12-07T15:35:21;7.20;;;3.15;;
28343;SDS011;15597;50.914;6.638;2022-12-07T15:37:46;9.90;;;4.03;;
28343;SDS011;15597;50.914;6.638;2022-12-07T15:40:12;8.52;;;3.08;;
28343;SDS011;15597;50.914;6.638;2022-12-07T15:42:39;7.63;;;3.45;;
28343;SDS011;15597;50.914;6.638;2022-12-07T15:45:05;10.25;;;4.70;;
28343;SDS011;15597;50.914;6.638;2022-12-07T15:47:33;7.65;;;2.65;;
28343;SDS011;15597;50.914;6.638;2022-12-07T15:50:02;9.43;;;4.30;;
28343;SDS011;15597;50.914;6.638;2022-12-07T15:52:32;7.20;;;3.20;;
28343;SDS011;15597;50.914;6.638;2022-12-07T15:54:58;8.93;;;4.75;;
28343;SDS011;15597;50.914;6.638;2022-12-07T15:57:31;9.57;;;3.63;;
28343;SDS011;15597;50.914;6.638;2022-12-07T15:59:58;8.88;;;3.58;;
28343;SDS011;15597;50.914;6.638;2022-12-07T16:02:23;9.90;;;4.65;;
28343;SDS011;15597;50.914;6.638;2022-12-07T16:04:50;9.77;;;3.97;;
28343;SDS011;15597;50.914;6.638;2022-12-07T16:07:17;9.13;;;4.32;;
28343;SDS011;15597;50.914;6.638;2022-12-07T16:09:44;10.25;;;4.50;;
28343;SDS011;15597;50.914;6.638;2022-12-07T16:12:11;7.85;;;4.28;;
28343;SDS011;15597;50.914;6.638;2022-12-07T16:14:38;9.98;;;4.78;;
28343;SDS011;15597;50.914;6.638;2022-12-07T16:17:04;9.18;;;4.20;;
28343;SDS011;15597;50.914;6.638;2022-12-07T16:19:32;8.57;;;4.40;;
28343;SDS011;15597;50.914;6.638;2022-12-07T16:21:58;9.40;;;4.13;;
28343;SDS011;15597;50.914;6.638;2022-12-07T16:24:24;9.88;;;4.82;;
28343;SDS011;15597;50.914;6.638;2022-12-07T16:26:50;10.82;;;4.32;;
28343;SDS011;15597;50.914;6.638;2022-12-07T16:29:17;12.48;;;4.60;;
28343;SDS011;15597;50.914;6.638;2022-12-07T16:31:44;13.73;;;5.38;;
28343;SDS011;15597;50.914;6.638;2022-12-07T16:34:10;8.68;;;4.20;;